Lime Valley, Pennsylvania
Current Conditions -  °F | °C
As of 1:53 PM on Wednesday 26 Nov 2014 (Local Time) from KLNS Reporting Station
Light Snow Light Snow  
Wind Chill: 25°   Ceiling: 1700
Heat Index: 33°   Visibility: 1mi
Dew Point: 31°   Wind: 9mph
Humidity: 92%   Direction: 20°NNE
Pressure: 29.92"   Gusts: NA
Location:  39.9601°N, 76.2683°W
Report Text: KLNS 261853Z 02008KT 1SM -SN BR FEW004 OVC017 01/M01 A2992 RMK AO2 SLP133 P0004 T00061006
Loading
Personal Weather Stations






























Interactive Weather Map New forecast layout! Learn more

10-Day Weather Forecast

Advertisements
Track Severe Weather on mobile